createdAt,value
2017-11-30T00:00:30.502Z,92.68
2017-11-30T00:03:00.725Z,92.71
2017-11-30T00:05:30.201Z,92.47
2017-11-30T00:07:57.998Z,92.52
2017-11-30T00:10:29.434Z,92.52
2017-11-30T00:12:59.977Z,92.47
2017-11-30T00:15:29.469Z,92.53
2017-11-30T00:27:44.511Z,93.07
2017-11-30T00:30:14.878Z,93.23
2017-11-30T00:42:40.852Z,93.08
2017-11-30T00:45:09.446Z,93.15
2017-11-30T00:47:37.881Z,93.33
2017-11-30T00:50:05.557Z,93.34
2017-11-30T00:52:33.221Z,93.44
2017-11-30T00:55:01.240Z,93.66
2017-11-30T00:57:29.656Z,93.63
2017-11-30T00:59:58.565Z,93.69
2017-11-30T01:02:26.950Z,93.72
2017-11-30T01:04:57.578Z,93.52
2017-11-30T01:07:27.978Z,93.50
2017-11-30T01:09:57.883Z,93.42
2017-11-30T01:12:27.740Z,93.61
2017-11-30T01:14:56.728Z,93.42
2017-11-30T01:17:26.040Z,93.49
2017-11-30T01:19:53.688Z,93.50
2017-11-30T01:22:25.657Z,93.59
2017-11-30T01:24:55.614Z,93.70
2017-11-30T01:27:23.596Z,93.62
2017-11-30T01:29:53.440Z,93.72
2017-11-30T01:32:22.954Z,93.81
2017-11-30T01:34:50.686Z,93.79
2017-11-30T01:37:20.119Z,93.81
2017-11-30T01:39:48.751Z,93.65
2017-11-30T01:42:16.597Z,93.44
2017-11-30T01:44:44.280Z,93.21
2017-11-30T01:47:13.497Z,93.42
2017-11-30T01:49:41.176Z,93.63
2017-11-30T01:52:08.864Z,93.73
2017-11-30T01:54:38.793Z,93.84
2017-11-30T01:57:08.425Z,93.72
2017-11-30T01:59:36.996Z,93.59
2017-11-30T02:02:05.603Z,93.39
2017-11-30T02:04:34.290Z,93.52
2017-11-30T02:07:07.543Z,93.40
2017-11-30T02:19:20.480Z,92.92
2017-11-30T02:21:48.351Z,92.74
2017-11-30T02:24:18.589Z,92.82
2017-11-30T02:26:47.066Z,92.43
2017-11-30T02:29:14.940Z,92.48
2017-11-30T02:31:43.114Z,92.50
2017-11-30T02:34:12.596Z,92.61
2017-11-30T02:36:40.295Z,92.59
2017-11-30T02:39:08.764Z,92.81
2017-11-30T02:41:36.610Z,92.69
2017-11-30T02:44:04.276Z,92.77
2017-11-30T02:46:33.628Z,92.97
2017-11-30T02:49:01.418Z,92.31
2017-11-30T02:51:31.964Z,91.77
2017-11-30T02:54:00.367Z,91.96
2017-11-30T02:56:28.077Z,92.06
2017-11-30T02:58:58.386Z,92.29
2017-11-30T03:01:26.883Z,92.37
2017-11-30T03:03:57.170Z,92.25
2017-11-30T03:06:25.762Z,92.11
2017-11-30T03:08:55.812Z,92.15
2017-11-30T03:11:25.398Z,92.09
2017-11-30T03:13:55.119Z,91.75
2017-11-30T03:16:25.655Z,92.04
2017-11-30T03:18:53.496Z,92.26
2017-11-30T03:21:22.003Z,92.49
2017-11-30T03:23:49.705Z,92.36
2017-11-30T03:26:20.823Z,91.77
2017-11-30T03:28:48.561Z,91.69
2017-11-30T03:31:16.224Z,91.87
2017-11-30T03:33:45.504Z,91.68
2017-11-30T03:36:16.553Z,91.82
2017-11-30T03:38:47.807Z,91.57
2017-11-30T03:51:01.359Z,91.38
2017-11-30T03:53:29.118Z,91.15
2017-11-30T03:55:58.421Z,90.99
2017-11-30T03:58:26.109Z,91.13
2017-11-30T04:00:56.473Z,90.99
2017-11-30T04:03:25.905Z,91.56
2017-11-30T04:05:57.076Z,90.92
2017-11-30T04:08:26.391Z,90.79
2017-11-30T04:10:56.859Z,91.13
2017-11-30T04:13:26.562Z,91.17
2017-11-30T04:15:54.673Z,90.96
2017-11-30T04:18:23.912Z,91.04
2017-11-30T04:20:53.781Z,91.24
2017-11-30T04:23:21.485Z,91.21
2017-11-30T04:25:51.091Z,91.31
2017-11-30T04:28:18.905Z,91.39
2017-11-30T04:30:49.724Z,91.08
2017-11-30T04:33:17.376Z,90.45
2017-11-30T04:35:47.151Z,90.63
2017-11-30T04:38:15.801Z,90.72
2017-11-30T04:40:45.282Z,90.76
2017-11-30T04:43:13.795Z,90.63
2017-11-30T04:45:43.308Z,90.66
2017-11-30T04:48:15.241Z,90.39
2017-11-30T04:50:43.705Z,90.16
2017-11-30T04:53:12.493Z,89.77
2017-11-30T04:55:41.804Z,89.98
2017-11-30T04:58:10.294Z,89.94
2017-11-30T05:00:37.975Z,89.53
2017-11-30T05:03:07.342Z,89.94
2017-11-30T05:05:35.561Z,89.78
2017-11-30T05:08:04.702Z,89.47
2017-11-30T05:10:33.213Z,89.52
2017-11-30T05:13:01.052Z,89.57
2017-11-30T05:15:28.765Z,89.57
2017-11-30T05:17:59.569Z,89.71
2017-11-30T05:20:27.633Z,89.78
2017-11-30T05:22:55.323Z,89.77
2017-11-30T05:25:24.580Z,89.93
2017-11-30T05:27:55.014Z,89.85
2017-11-30T05:30:23.447Z,90.02
2017-11-30T05:32:53.262Z,89.99
2017-11-30T05:35:22.724Z,90.09
2017-11-30T05:37:50.609Z,89.98
2017-11-30T05:40:18.294Z,89.90
2017-11-30T05:42:47.607Z,90.00
2017-11-30T05:45:16.112Z,89.92
2017-11-30T05:47:46.542Z,90.15
2017-11-30T05:50:18.760Z,90.01
2017-11-30T05:52:48.315Z,89.96
2017-11-30T05:55:19.153Z,90.07
2017-11-30T05:57:48.659Z,90.04
2017-11-30T06:00:18.968Z,89.78
2017-11-30T06:02:49.649Z,90.00
2017-11-30T06:05:19.323Z,90.09
2017-11-30T06:07:49.767Z,89.98
2017-11-30T06:10:18.242Z,89.98
2017-11-30T06:12:49.578Z,90.36
2017-11-30T06:15:18.674Z,90.34
2017-11-30T06:17:49.913Z,90.36
2017-11-30T06:20:20.897Z,90.40
2017-11-30T06:22:49.458Z,90.53
2017-11-30T06:25:19.256Z,90.73
2017-11-30T06:27:52.207Z,90.40
2017-11-30T06:30:21.759Z,90.78
2017-11-30T06:32:49.626Z,90.62
2017-11-30T06:35:17.806Z,90.52
2017-11-30T06:37:46.395Z,90.30
2017-11-30T06:40:15.829Z,90.49
2017-11-30T06:42:44.919Z,90.51
2017-11-30T06:45:14.348Z,90.69
2017-11-30T06:47:43.914Z,90.44
2017-11-30T06:50:17.001Z,90.33
2017-11-30T06:52:44.840Z,90.39
2017-11-30T06:55:15.238Z,90.54
2017-11-30T06:57:45.622Z,90.44
2017-11-30T07:10:00.292Z,90.29
2017-11-30T07:12:30.644Z,90.41
2017-11-30T07:15:00.357Z,90.36
2017-11-30T07:17:30.633Z,90.44
2017-11-30T07:20:00.295Z,90.90
2017-11-30T07:22:30.696Z,90.99
2017-11-30T07:25:00.667Z,91.09
2017-11-30T07:37:13.486Z,91.08
2017-11-30T07:39:42.233Z,91.05
2017-11-30T07:42:15.246Z,90.77
2017-11-30T07:44:48.567Z,90.32
2017-11-30T07:47:18.792Z,90.61
2017-11-30T07:49:48.061Z,90.72
2017-11-30T08:02:03.253Z,90.92
2017-11-30T08:04:32.752Z,90.80
2017-11-30T08:07:05.067Z,90.69
2017-11-30T08:19:18.669Z,90.16
2017-11-30T08:21:46.591Z,90.28
2017-11-30T08:24:16.704Z,90.17
2017-11-30T08:26:47.980Z,90.40
2017-11-30T08:29:18.449Z,90.02
2017-11-30T08:31:54.502Z,90.00
2017-11-30T08:34:31.762Z,89.95
2017-11-30T08:37:00.787Z,90.26
2017-11-30T08:39:30.769Z,90.00
2017-11-30T08:42:03.826Z,89.85
2017-11-30T08:44:36.310Z,90.10
2017-11-30T08:47:07.680Z,90.24
2017-11-30T08:49:41.568Z,90.33
2017-11-30T08:52:10.665Z,89.86
2017-11-30T08:54:43.804Z,89.49
2017-11-30T08:57:14.401Z,89.30
2017-11-30T08:59:47.354Z,88.97
2017-11-30T09:02:17.205Z,89.05
2017-11-30T09:07:19.448Z,88.93
2017-11-30T09:09:53.191Z,88.38
2017-11-30T09:12:25.788Z,88.54
2017-11-30T09:14:58.387Z,88.89
2017-11-30T09:17:29.664Z,88.01
2017-11-30T09:20:00.817Z,87.73
2017-11-30T09:22:32.728Z,87.86
2017-11-30T09:25:01.310Z,87.70
2017-11-30T09:27:31.381Z,87.46
2017-11-30T09:29:59.143Z,87.40
2017-11-30T09:32:28.230Z,87.98
2017-11-30T09:34:58.527Z,87.00
2017-11-30T09:37:26.985Z,86.86
2017-11-30T09:39:57.829Z,87.21
2017-11-30T09:42:27.185Z,86.96
2017-11-30T09:44:56.287Z,86.79
2017-11-30T09:47:25.329Z,87.08
2017-11-30T09:49:54.787Z,86.39
2017-11-30T09:52:25.650Z,86.66
2017-11-30T09:54:55.981Z,86.13
2017-11-30T09:57:26.328Z,85.85
2017-11-30T09:59:54.914Z,85.99
2017-11-30T10:02:26.661Z,86.24
2017-11-30T10:04:56.998Z,85.64
2017-11-30T10:07:29.365Z,85.26
2017-11-30T10:09:59.312Z,85.72
2017-11-30T10:12:28.629Z,85.95
2017-11-30T10:14:56.368Z,85.89
2017-11-30T10:17:24.841Z,85.48
2017-11-30T10:19:54.867Z,85.34
2017-11-30T10:22:22.740Z,85.24
2017-11-30T10:24:51.316Z,84.89
2017-11-30T10:27:21.815Z,85.34
2017-11-30T10:29:50.337Z,85.32
2017-11-30T10:32:20.674Z,85.37
2017-11-30T10:44:43.724Z,84.96
2017-11-30T10:47:12.382Z,85.40
2017-11-30T10:49:41.363Z,85.36
2017-11-30T10:52:11.725Z,85.38
2017-11-30T10:54:39.489Z,84.58
2017-11-30T10:57:09.131Z,84.92
2017-11-30T10:59:36.939Z,85.04
2017-11-30T11:02:05.915Z,84.99
2017-11-30T11:04:35.317Z,85.18
2017-11-30T11:07:04.175Z,85.39
2017-11-30T11:09:32.118Z,85.40
2017-11-30T11:12:01.712Z,85.16
2017-11-30T11:14:31.140Z,85.97
2017-11-30T11:16:58.882Z,85.80
2017-11-30T11:19:28.929Z,84.96
2017-11-30T11:21:57.413Z,85.74
2017-11-30T11:24:26.915Z,85.84
2017-11-30T11:26:55.402Z,85.75
2017-11-30T11:29:23.135Z,86.08
2017-11-30T11:31:52.424Z,86.00
2017-11-30T11:34:20.173Z,85.87
2017-11-30T11:36:49.465Z,85.53
2017-11-30T11:39:18.236Z,85.70
2017-11-30T11:41:47.687Z,85.58
2017-11-30T11:44:15.493Z,85.43
2017-11-30T11:46:46.321Z,85.51
2017-11-30T11:49:16.665Z,84.51
2017-11-30T11:51:48.941Z,84.81
2017-11-30T11:54:18.814Z,84.19
2017-11-30T11:56:46.574Z,83.98
2017-11-30T11:59:18.005Z,83.29
2017-11-30T12:01:46.587Z,81.43
2017-11-30T12:04:19.498Z,82.20
2017-11-30T12:06:50.047Z,83.18
2017-11-30T12:09:22.679Z,81.91
2017-11-30T12:11:56.831Z,80.79
2017-11-30T12:14:25.330Z,80.44
2017-11-30T12:16:54.766Z,79.55
2017-11-30T12:19:24.704Z,79.56
2017-11-30T12:21:52.463Z,79.56
2017-11-30T12:24:24.327Z,79.09
2017-11-30T12:26:52.341Z,78.65
2017-11-30T12:29:22.625Z,79.05
2017-11-30T12:31:51.110Z,79.05
2017-11-30T12:34:21.974Z,78.95
2017-11-30T12:36:51.749Z,78.94
2017-11-30T12:39:19.425Z,78.67
2017-11-30T12:41:49.017Z,79.63
2017-11-30T12:44:20.095Z,78.27
2017-11-30T12:46:49.571Z,78.85
2017-11-30T12:49:20.020Z,79.18
2017-11-30T12:51:49.508Z,78.43
2017-11-30T12:54:19.862Z,77.95
2017-11-30T12:56:47.574Z,78.53
2017-11-30T12:59:18.231Z,78.10
2017-11-30T13:01:47.523Z,77.97
2017-11-30T13:04:18.142Z,78.48
2017-11-30T13:06:48.504Z,79.49
2017-11-30T13:09:18.892Z,80.22
2017-11-30T13:11:48.312Z,80.88
2017-11-30T13:14:16.367Z,80.63
2017-11-30T13:16:44.031Z,80.70
2017-11-30T13:19:12.026Z,81.32
2017-11-30T13:21:42.327Z,81.97
2017-11-30T13:24:11.721Z,82.68
2017-11-30T13:26:39.426Z,83.15
2017-11-30T13:29:09.640Z,83.49
2017-11-30T13:31:40.554Z,83.71
2017-11-30T13:34:10.223Z,83.39
2017-11-30T13:36:39.560Z,83.40
2017-11-30T13:39:08.106Z,83.47
2017-11-30T13:41:35.802Z,83.76
2017-11-30T13:44:03.486Z,83.93
2017-11-30T13:46:32.824Z,83.93
2017-11-30T13:49:05.271Z,83.88
2017-11-30T13:51:33.033Z,83.88
2017-11-30T13:54:01.986Z,83.67
2017-11-30T13:56:33.041Z,84.11
2017-11-30T13:59:00.898Z,84.10
2017-11-30T14:01:29.300Z,83.96
2017-11-30T14:03:57.012Z,84.03
2017-11-30T14:06:26.661Z,83.34
2017-11-30T14:08:55.144Z,83.53
2017-11-30T14:11:22.837Z,83.05
2017-11-30T14:13:51.065Z,82.44
2017-11-30T14:16:19.172Z,82.18
2017-11-30T14:18:51.175Z,82.37
2017-11-30T14:21:18.935Z,82.00
2017-11-30T14:23:46.701Z,82.07
2017-11-30T14:26:16.141Z,81.13
2017-11-30T14:28:45.102Z,81.32
2017-11-30T14:31:12.833Z,81.63
2017-11-30T14:33:45.591Z,81.40
2017-11-30T14:36:15.157Z,81.43
2017-11-30T14:38:42.891Z,81.65
2017-11-30T14:41:12.246Z,81.63
2017-11-30T14:43:41.703Z,82.31
2017-11-30T14:46:12.013Z,81.83
2017-11-30T14:48:40.019Z,82.29
2017-11-30T14:51:07.713Z,82.86
2017-11-30T14:53:37.571Z,83.16
2017-11-30T14:56:06.935Z,83.69
2017-11-30T14:58:35.244Z,84.05
2017-11-30T15:01:03.019Z,84.51
2017-11-30T15:03:31.879Z,85.03
2017-11-30T15:06:02.207Z,85.45
2017-11-30T15:08:32.753Z,85.70
2017-11-30T15:11:02.898Z,86.07
2017-11-30T15:13:32.370Z,86.44
2017-11-30T15:16:00.155Z,86.67
2017-11-30T15:18:31.033Z,86.73
2017-11-30T15:21:01.357Z,86.77
2017-11-30T15:33:15.916Z,86.77
2017-11-30T15:35:44.373Z,86.91
2017-11-30T15:38:14.214Z,86.92
2017-11-30T15:40:43.189Z,87.28
2017-11-30T15:43:11.671Z,87.56
2017-11-30T15:45:40.458Z,88.00
2017-11-30T15:48:11.466Z,88.16
2017-11-30T15:50:39.257Z,88.44
2017-11-30T15:53:09.544Z,88.84
2017-11-30T15:55:39.686Z,88.87
2017-11-30T15:58:07.380Z,89.21
2017-11-30T16:00:37.715Z,89.67
2017-11-30T16:03:07.266Z,89.88
2017-11-30T16:05:38.996Z,90.15
2017-11-30T16:08:06.703Z,90.44
2017-11-30T16:10:35.108Z,90.98
2017-11-30T16:13:06.264Z,91.33
2017-11-30T16:15:35.720Z,91.42
2017-11-30T16:18:04.165Z,91.35
2017-11-30T16:20:36.464Z,91.44
2017-11-30T16:23:04.938Z,91.36
2017-11-30T16:25:33.316Z,91.22
2017-11-30T16:28:04.814Z,91.13
2017-11-30T16:30:34.202Z,91.10
2017-11-30T16:33:05.541Z,91.15
2017-11-30T16:35:37.497Z,91.25
2017-11-30T16:38:05.972Z,91.08
2017-11-30T16:40:45.819Z,91.09
2017-11-30T16:43:15.207Z,91.06
2017-11-30T16:45:45.488Z,91.05
2017-11-30T16:48:13.310Z,91.15
2017-11-30T16:50:42.596Z,91.20
2017-11-30T16:53:12.018Z,91.28
2017-11-30T16:55:39.723Z,91.39
2017-11-30T16:58:10.516Z,91.43
2017-11-30T17:00:41.091Z,91.44
2017-11-30T17:03:08.912Z,91.61
2017-11-30T17:05:38.917Z,91.78
2017-11-30T17:08:06.690Z,91.84
2017-11-30T17:10:36.096Z,92.20
2017-11-30T17:13:04.440Z,92.30
2017-11-30T17:15:33.840Z,92.40
2017-11-30T17:18:03.660Z,92.51
2017-11-30T17:20:32.499Z,92.58
2017-11-30T17:23:04.410Z,92.67
2017-11-30T17:25:34.784Z,92.88
2017-11-30T17:28:03.689Z,92.82
2017-11-30T17:30:32.882Z,92.97
2017-11-30T17:33:01.223Z,93.14
2017-11-30T17:35:28.950Z,93.09
2017-11-30T17:37:57.725Z,93.26
2017-11-30T17:40:27.170Z,93.34
2017-11-30T17:42:55.490Z,93.43
2017-11-30T17:45:26.639Z,93.65
2017-11-30T17:48:00.074Z,93.78
2017-11-30T17:50:32.051Z,93.91
2017-11-30T17:53:05.006Z,93.99
2017-11-30T17:55:33.622Z,94.06
2017-11-30T17:58:06.053Z,94.25
2017-11-30T18:00:39.209Z,94.15
2017-11-30T18:16:07.644Z,94.62
2017-11-30T18:18:38.605Z,94.80
2017-11-30T18:21:10.001Z,94.80
2017-11-30T18:23:42.324Z,94.77
2017-11-30T18:26:11.000Z,94.78
2017-11-30T18:28:41.900Z,94.77
2017-11-30T18:31:16.843Z,94.69
2017-11-30T18:43:32.371Z,94.26
2017-11-30T18:46:01.621Z,94.09
2017-11-30T18:48:31.642Z,94.03
2017-11-30T18:51:01.362Z,93.96
2017-11-30T18:53:29.517Z,93.78
2017-11-30T18:55:58.433Z,93.62
2017-11-30T18:58:27.051Z,93.39
2017-11-30T19:00:56.815Z,93.12
2017-11-30T19:03:26.897Z,92.79
2017-11-30T19:05:57.949Z,92.50
2017-11-30T19:08:27.432Z,92.52
2017-11-30T19:10:55.270Z,92.35
2017-11-30T19:13:28.307Z,92.05
2017-11-30T19:15:56.938Z,91.98
2017-11-30T19:18:27.669Z,91.87
2017-11-30T19:20:58.831Z,91.88
2017-11-30T19:23:27.010Z,91.72
2017-11-30T19:26:00.755Z,91.73
2017-11-30T19:28:30.011Z,91.66
2017-11-30T19:30:59.527Z,91.62
2017-11-30T19:33:28.666Z,91.73
2017-11-30T19:36:00.276Z,91.77
2017-11-30T19:38:31.031Z,91.88
2017-11-30T19:41:00.519Z,91.80
2017-11-30T19:43:33.236Z,91.79
2017-11-30T19:48:38.706Z,91.77
2017-11-30T19:51:06.634Z,91.62
2017-11-30T19:53:38.628Z,91.48
2017-11-30T19:56:08.406Z,91.38
2017-11-30T19:58:36.504Z,91.41
2017-11-30T20:01:06.822Z,91.41
2017-11-30T20:03:37.547Z,91.41
2017-11-30T20:06:08.809Z,91.40
2017-11-30T20:08:38.450Z,91.36
2017-11-30T20:11:07.251Z,91.26
2017-11-30T20:13:37.942Z,91.11
2017-11-30T20:16:08.922Z,91.45
2017-11-30T20:18:39.900Z,91.33
2017-11-30T20:21:11.155Z,91.20
2017-11-30T20:23:40.478Z,91.50
2017-11-30T20:26:11.517Z,91.58
2017-11-30T20:28:43.180Z,91.56
2017-11-30T20:31:12.068Z,91.64
2017-11-30T20:33:42.455Z,91.71
2017-11-30T20:36:13.432Z,91.83
2017-11-30T20:38:44.415Z,91.96
2017-11-30T20:41:16.869Z,91.96
2017-11-30T20:43:48.608Z,91.89
2017-11-30T20:46:17.296Z,91.97
2017-11-30T21:01:46.701Z,91.37
2017-11-30T21:04:14.876Z,91.41
2017-11-30T21:06:44.593Z,91.39
2017-11-30T21:09:14.487Z,91.39
2017-11-30T21:11:42.451Z,91.39
2017-11-30T21:14:15.884Z,91.50
2017-11-30T21:16:45.527Z,91.65
2017-11-30T21:19:14.254Z,91.84
2017-11-30T21:21:43.872Z,91.79
2017-11-30T21:24:15.838Z,91.86
2017-11-30T21:26:43.762Z,91.74
2017-11-30T21:29:12.339Z,91.77
2017-11-30T21:31:40.073Z,91.68
2017-11-30T21:34:11.748Z,91.54
2017-11-30T21:36:41.204Z,91.52
2017-11-30T21:39:14.264Z,91.45
2017-11-30T21:51:28.758Z,91.50
2017-11-30T21:53:56.938Z,91.18
2017-11-30T21:56:25.714Z,91.19
2017-11-30T21:58:56.581Z,91.18
2017-11-30T22:01:25.376Z,90.74
2017-11-30T22:03:54.628Z,90.66
2017-11-30T22:06:23.515Z,90.56
2017-11-30T22:08:51.228Z,90.49
2017-11-30T22:11:22.462Z,90.65
2017-11-30T22:13:51.852Z,90.48
2017-11-30T22:16:20.332Z,90.50
2017-11-30T22:18:48.009Z,90.47
2017-11-30T22:21:17.358Z,90.32
2017-11-30T22:23:46.115Z,90.37
2017-11-30T22:26:16.793Z,90.20
2017-11-30T22:28:46.184Z,90.23
2017-11-30T22:31:13.924Z,90.10
2017-11-30T22:33:41.613Z,90.27
2017-11-30T22:36:09.315Z,90.26
2017-11-30T22:38:39.745Z,90.45
2017-11-30T22:41:07.428Z,90.38
2017-11-30T22:43:35.081Z,90.28
2017-11-30T22:46:04.633Z,90.13
2017-11-30T22:48:34.174Z,90.20
2017-11-30T22:51:03.743Z,90.25
2017-11-30T22:53:31.458Z,90.07
2017-11-30T22:55:59.177Z,89.98
2017-11-30T22:58:28.474Z,89.61
2017-11-30T23:00:56.955Z,89.76
2017-11-30T23:03:25.532Z,89.74
2017-11-30T23:05:53.559Z,89.54
2017-11-30T23:08:24.614Z,89.58
2017-11-30T23:10:52.408Z,89.72
2017-11-30T23:13:20.083Z,89.85
2017-11-30T23:15:47.918Z,89.83
2017-11-30T23:18:16.032Z,89.64
2017-11-30T23:20:46.360Z,89.57
2017-11-30T23:23:16.426Z,89.37
2017-11-30T23:25:46.133Z,89.45
2017-11-30T23:28:15.486Z,89.40
2017-11-30T23:30:43.204Z,88.79
2017-11-30T23:33:12.594Z,88.76
2017-11-30T23:35:40.432Z,88.54
2017-11-30T23:38:08.109Z,88.52
2017-11-30T23:40:36.148Z,88.79
2017-11-30T23:43:05.582Z,88.73
2017-11-30T23:45:41.837Z,88.97
2017-11-30T23:48:09.598Z,89.06
2017-11-30T23:50:41.299Z,88.92
2017-11-30T23:53:10.775Z,88.91
2017-11-30T23:55:42.208Z,89.23
2017-11-30T23:58:10.076Z,89.26
